Time;durP1;ratioP1;P1;durP2;ratioP2;P2;SDS_P1;SDS_P2;PMS_P1;PMS_P2;Temp;Humidity;BMP_temperature;BMP_pressure;BME280_temperature;BME280_humidity;BME280_pressure;Samples;Min_cycle;Max_cycle;Signal;HPM_P1;HPM_P2
2022/09/08 00:00:09;;;;;;;;;;;;;;;;;;5069139;28;47109;-74
2022/09/08 00:02:35;;;;;;;;;;;;;;;;;;5066888;28;46375;-74
2022/09/08 00:05:03;;;;;;;;;;;;;;;;;;5067410;28;44759;-74
2022/09/08 00:07:30;;;;;;;;;;;;;;;;;;5068135;28;45491;-74
2022/09/08 00:09:56;;;;;;;;;;;;;;;;;;5067312;28;48374;-74
2022/09/08 00:12:24;;;;;;;;;;;;;;;;;;5047244;28;44025;-74
2022/09/08 00:14:50;;;;;;;;;;;;;;;;;;5052921;28;46997;-74
2022/09/08 00:17:16;;;;;;;;;;;;;;;;;;5067809;28;48223;-75
2022/09/08 00:19:42;;;;;;;;;;;;;;;;;;5066377;28;47675;-75
2022/09/08 00:22:09;;;;;;;;;;;;;;;;;;5066895;28;47329;-74
2022/09/08 00:24:35;;;;;;;;;;;;;;;;;;5065370;28;44011;-74
2022/09/08 00:27:01;;;;;;;;;;;;;;;;;;5048971;28;47767;-74
2022/09/08 00:29:27;;;;;;;;;;;;;;;;;;5059605;28;48503;-75
2022/09/08 00:31:53;;;;;;;;;;;;;;;;;;5066970;28;45139;-75
2022/09/08 00:34:20;;;;;;;;;;;;;;;;;;5067274;28;46593;-75
2022/09/08 00:36:46;;;;;;;;;;;;;;;;;;5063902;28;47211;-74
2022/09/08 00:39:12;;;;;;;;;;;;;;;;;;5068620;28;45171;-75
2022/09/08 00:41:39;;;;;;;;;;;;;;;;;;5068147;28;47258;-75
2022/09/08 00:44:06;;;;;;;;;;;;;;;;;;5066365;28;45103;-74
2022/09/08 00:46:32;;;;;;;;;;;;;;;;;;5049995;28;46610;-74
2022/09/08 00:48:58;;;;;;;;;;;;;;;;;;5066677;28;48181;-74
2022/09/08 00:51:24;;;;;;;;;;;;;;;;;;5066436;28;43596;-74
2022/09/08 00:53:50;;;;;;;;;;;;;;;;;;5064318;28;46624;-74
2022/09/08 00:56:17;;;;;;;;;;;;;;;;;;5066925;28;46876;-75
2022/09/08 00:58:43;;;;;;;;;;;;;;;;;;5068072;28;43659;-74
2022/09/08 01:01:09;;;;;;;;;;;;;;;;;;5064242;28;46170;-75
2022/09/08 01:03:36;;;;;;;;;;;;;;;;;;5047882;28;44785;-74
2022/09/08 01:06:02;;;;;;;;;;;;;;;;;;5060523;28;46604;-74
2022/09/08 01:13:58;;;;;;;;;;;;;;;;;;5068162;28;46598;-74
2022/09/08 01:16:25;;;;;;;;;;;;;;;;;;5065996;28;47266;-74
2022/09/08 01:18:51;;;;;;;;;;;;;;;;;;5057292;28;44934;-75
2022/09/08 01:21:17;;;;;;;;;;;;;;;;;;5066024;28;46692;-74
2022/09/08 01:23:43;;;;;;;;;;;;;;;;;;5065806;28;47679;-74
2022/09/08 01:26:10;;;;;;;;;;;;;;;;;;5064558;28;47136;-75
2022/09/08 01:28:36;;;;;;;;;;;;;;;;;;5050567;28;47307;-75
2022/09/08 01:31:02;;;;;;;;;;;;;;;;;;5059775;28;45356;-75
2022/09/08 01:33:28;;;;;;;;;;;;;;;;;;5066718;28;46999;-75
2022/09/08 01:35:55;;;;;;;;;;;;;;;;;;5055790;28;45674;-75
2022/09/08 01:38:21;;;;;;;;;;;;;;;;;;5066303;28;44732;-75
2022/09/08 01:40:47;;;;;;;;;;;;;;;;;;5067046;28;48015;-75
2022/09/08 01:43:13;;;;;;;;;;;;;;;;;;5066992;28;45950;-75
2022/09/08 01:45:39;;;;;;;;;;;;;;;;;;5065192;28;44521;-75
2022/09/08 01:48:06;;;;;;;;;;;;;;;;;;5064417;28;47205;-75
2022/09/08 01:50:32;;;;;;;;;;;;;;;;;;5045429;28;46280;-75
2022/09/08 01:52:58;;;;;;;;;;;;;;;;;;5054406;28;46591;-75
2022/09/08 01:55:24;;;;;;;;;;;;;;;;;;5062303;28;48309;-75
2022/09/08 01:57:50;;;;;;;;;;;;;;;;;;5065706;28;44000;-76
2022/09/08 02:00:16;;;;;;;;;;;;;;;;;;5066577;28;48159;-76
2022/09/08 02:02:43;;;;;;;;;;;;;;;;;;5066989;28;47321;-76
2022/09/08 02:05:09;;;;;;;;;;;;;;;;;;5067306;28;43691;-76
2022/09/08 02:07:37;;;;;;;;;;;;;;;;;;5065072;28;45758;-76
2022/09/08 02:10:04;;;;;;;;;;;;;;;;;;5059997;28;44884;-76
2022/09/08 02:12:30;;;;;;;;;;;;;;;;;;5066521;28;47635;-76
2022/09/08 02:14:56;;;;;;;;;;;;;;;;;;5065234;28;47299;-76
2022/09/08 02:17:22;;;;;;;;;;;;;;;;;;5066458;28;45188;-76
2022/09/08 02:19:49;;;;;;;;;;;;;;;;;;5065931;28;47642;-77
2022/09/08 02:22:15;;;;;;;;;;;;;;;;;;5063888;28;48275;-76
2022/09/08 02:24:41;;;;;;;;;;;;;;;;;;5066907;28;44003;-76
2022/09/08 02:27:07;;;;;;;;;;;;;;;;;;5060882;28;48123;-76
2022/09/08 02:29:34;;;;;;;;;;;;;;;;;;5066485;28;45059;-76
2022/09/08 02:32:00;;;;;;;;;;;;;;;;;;5066709;28;47029;-76
2022/09/08 02:34:26;;;;;;;;;;;;;;;;;;5063322;28;48110;-75
2022/09/08 02:36:52;;;;;;;;;;;;;;;;;;5065237;28;44035;-77
2022/09/08 02:39:19;;;;;;;;;;;;;;;;;;5063305;28;46474;-77
2022/09/08 02:41:45;;;;;;;;;;;;;;;;;;5058653;28;47516;-77
2022/09/08 02:44:12;;;;;;;;;;;;;;;;;;5044560;28;43627;-77
2022/09/08 02:46:38;;;;;;;;;;;;;;;;;;5053545;28;46689;-77
2022/09/08 02:49:05;;;;;;;;;;;;;;;;;;5066299;28;48031;-78
2022/09/08 02:51:31;;;;;;;;;;;;;;;;;;5065905;28;47770;-76
2022/09/08 02:53:57;;;;;;;;;;;;;;;;;;5066623;28;47314;-77
2022/09/08 02:56:24;;;;;;;;;;;;;;;;;;5065482;28;45148;-76
2022/09/08 02:58:50;;;;;;;;;;;;;;;;;;5066366;28;46575;-77
2022/09/08 03:01:16;;;;;;;;;;;;;;;;;;5060247;28;48466;-78
2022/09/08 03:03:43;;;;;;;;;;;;;;;;;;5048704;28;44159;-78
2022/09/08 03:06:15;;;;;;;;;;;;;;;;;;5065127;28;47696;-83
2022/09/08 03:08:41;;;;;;;;;;;;;;;;;;5066214;28;47191;-80
2022/09/08 03:11:08;;;;;;;;;;;;;;;;;;5064513;28;45146;-78
2022/09/08 03:13:35;;;;;;;;;;;;;;;;;;5065166;28;47413;-76
2022/09/08 03:16:02;;;;;;;;;;;;;;;;;;5064124;28;44030;-78
2022/09/08 03:18:28;;;;;;;;;;;;;;;;;;5067218;28;43021;-80
2022/09/08 03:20:54;;;;;;;;;;;;;;;;;;5067819;28;47600;-78
2022/09/08 03:23:22;;;;;;;;;;;;;;;;;;5066974;28;44990;-77
2022/09/08 03:25:48;;;;;;;;;;;;;;;;;;5048907;28;47026;-78
2022/09/08 03:28:14;;;;;;;;;;;;;;;;;;5058442;28;48398;-78
2022/09/08 03:30:41;;;;;;;;;;;;;;;;;;5066001;28;43884;-79
2022/09/08 03:33:07;;;;;;;;;;;;;;;;;;5068013;28;45493;-78
2022/09/08 03:35:33;;;;;;;;;;;;;;;;;;5068632;28;44008;-78
2022/09/08 03:37:59;;;;;;;;;;;;;;;;;;5067605;28;47860;-80
2022/09/08 03:40:25;;;;;;;;;;;;;;;;;;5066054;28;46237;-78
2022/09/08 03:42:51;;;;;;;;;;;;;;;;;;5068164;28;45010;-78
2022/09/08 03:45:18;;;;;;;;;;;;;;;;;;5068933;28;46674;-78
2022/09/08 03:47:44;;;;;;;;;;;;;;;;;;5067410;28;47281;-78
2022/09/08 03:50:10;;;;;;;;;;;;;;;;;;5067359;28;43931;-78
2022/09/08 03:52:37;;;;;;;;;;;;;;;;;;5066327;28;47722;-78
2022/09/08 03:55:03;;;;;;;;;;;;;;;;;;5069101;28;48278;-77
2022/09/08 03:57:29;;;;;;;;;;;;;;;;;;5069128;28;44636;-79
2022/09/08 03:59:56;;;;;;;;;;;;;;;;;;5067814;28;46176;-79
2022/09/08 04:02:22;;;;;;;;;;;;;;;;;;5067366;28;43022;-77
2022/09/08 04:04:49;;;;;;;;;;;;;;;;;;5066856;28;45933;-78
2022/09/08 04:07:15;;;;;;;;;;;;;;;;;;5066887;28;47215;-79
2022/09/08 04:09:41;;;;;;;;;;;;;;;;;;5067430;28;45092;-79
2022/09/08 04:12:07;;;;;;;;;;;;;;;;;;5056537;28;46032;-78
2022/09/08 04:14:33;;;;;;;;;;;;;;;;;;5064427;28;47162;-79
2022/09/08 04:17:00;;;;;;;;;;;;;;;;;;5067024;28;44574;-79
2022/09/08 04:19:26;;;;;;;;;;;;;;;;;;5067624;28;47216;-78
2022/09/08 04:21:52;;;;;;;;;;;;;;;;;;5068361;28;43996;-78
2022/09/08 04:24:19;;;;;;;;;;;;;;;;;;5067784;28;46580;-78
2022/09/08 04:26:45;;;;;;;;;;;;;;;;;;5068181;28;48399;-79
2022/09/08 04:29:11;;;;;;;;;;;;;;;;;;5068425;28;44773;-80
2022/09/08 04:31:38;;;;;;;;;;;;;;;;;;5067774;28;45852;-78
2022/09/08 04:34:04;;;;;;;;;;;;;;;;;;5067278;28;45780;-79
2022/09/08 04:36:30;;;;;;;;;;;;;;;;;;5067271;28;43896;-78
2022/09/08 04:38:57;;;;;;;;;;;;;;;;;;5067367;28;47286;-77
2022/09/08 04:41:23;;;;;;;;;;;;;;;;;;5071481;28;42940;-77
2022/09/08 04:43:49;;;;;;;;;;;;;;;;;;5069167;28;47803;-77
2022/09/08 04:46:15;;;;;;;;;;;;;;;;;;5070830;28;46216;-80
2022/09/08 04:48:42;;;;;;;;;;;;;;;;;;5066493;28;44472;-79
2022/09/08 04:51:08;;;;;;;;;;;;;;;;;;5064147;28;46445;-78
2022/09/08 04:53:36;;;;;;;;;;;;;;;;;;5067706;28;46999;-78
2022/09/08 04:56:02;;;;;;;;;;;;;;;;;;5067505;28;44019;-78
2022/09/08 04:58:28;;;;;;;;;;;;;;;;;;5068861;28;46563;-78
2022/09/08 05:00:54;;;;;;;;;;;;;;;;;;5058882;28;43285;-78
2022/09/08 05:03:20;;;;;;;;;;;;;;;;;;5066638;28;46367;-79
2022/09/08 05:05:47;;;;;;;;;;;;;;;;;;5063703;28;48339;-77
2022/09/08 05:08:13;;;;;;;;;;;;;;;;;;5067545;28;45020;-79
2022/09/08 05:10:39;;;;;;;;;;;;;;;;;;5067178;28;46730;-79
2022/09/08 05:13:05;;;;;;;;;;;;;;;;;;5068377;28;47289;-78
2022/09/08 05:15:31;;;;;;;;;;;;;;;;;;5066466;28;44230;-77
2022/09/08 05:17:58;;;;;;;;;;;;;;;;;;5059869;28;46484;-77
2022/09/08 05:20:24;;;;;;;;;;;;;;;;;;5065417;28;46184;-77
2022/09/08 05:22:50;;;;;;;;;;;;;;;;;;5068455;28;47651;-77
2022/09/08 05:25:16;;;;;;;;;;;;;;;;;;5068110;28;47686;-77
2022/09/08 05:27:43;;;;;;;;;;;;;;;;;;5066072;28;45600;-77
2022/09/08 05:30:09;;;;;;;;;;;;;;;;;;5067514;28;46715;-77
2022/09/08 05:32:35;;;;;;;;;;;;;;;;;;5064001;28;47240;-78
2022/09/08 05:35:01;;;;;;;;;;;;;;;;;;5063511;28;44045;-77
2022/09/08 05:37:28;;;;;;;;;;;;;;;;;;5046812;28;46597;-77
2022/09/08 05:39:54;;;;;;;;;;;;;;;;;;5049745;28;48415;-76
2022/09/08 05:42:20;;;;;;;;;;;;;;;;;;5066395;28;43995;-76
2022/09/08 05:44:47;;;;;;;;;;;;;;;;;;5067107;28;48362;-77
2022/09/08 05:47:13;;;;;;;;;;;;;;;;;;5053701;28;40451;-80
2022/09/08 05:49:39;;;;;;;;;;;;;;;;;;5065132;28;47162;-83
2022/09/08 05:52:05;;;;;;;;;;;;;;;;;;5060604;28;48317;-79
2022/09/08 05:54:31;;;;;;;;;;;;;;;;;;5059620;28;41922;-79
2022/09/08 05:56:57;;;;;;;;;;;;;;;;;;5067239;28;47845;-80
2022/09/08 05:59:24;;;;;;;;;;;;;;;;;;5063037;28;47198;-78
2022/09/08 06:01:50;;;;;;;;;;;;;;;;;;5065125;28;42947;-76
2022/09/08 06:04:16;;;;;;;;;;;;;;;;;;5066218;28;45264;-77
2022/09/08 06:06:42;;;;;;;;;;;;;;;;;;5063090;28;44992;-76
2022/09/08 06:09:09;;;;;;;;;;;;;;;;;;5060814;28;46548;-76
2022/09/08 06:11:35;;;;;;;;;;;;;;;;;;5065658;28;48599;-76
2022/09/08 06:14:01;;;;;;;;;;;;;;;;;;5064082;28;43735;-77
2022/09/08 06:16:29;;;;;;;;;;;;;;;;;;5063915;28;46462;-77
2022/09/08 06:18:55;;;;;;;;;;;;;;;;;;5062204;28;47946;-77
2022/09/08 06:21:23;;;;;;;;;;;;;;;;;;5068523;28;44002;-77
2022/09/08 06:23:49;;;;;;;;;;;;;;;;;;5065570;28;46404;-77
2022/09/08 06:26:15;;;;;;;;;;;;;;;;;;5056288;28;45022;-77
2022/09/08 06:28:41;;;;;;;;;;;;;;;;;;5057587;28;47048;-77
2022/09/08 06:31:08;;;;;;;;;;;;;;;;;;5065351;28;47944;-78
2022/09/08 06:33:34;;;;;;;;;;;;;;;;;;5066529;28;43890;-77
2022/09/08 06:36:00;;;;;;;;;;;;;;;;;;5064602;28;47621;-77
2022/09/08 06:38:26;;;;;;;;;;;;;;;;;;5065617;28;48384;-77
2022/09/08 06:40:53;;;;;;;;;;;;;;;;;;5064454;28;45071;-76
2022/09/08 06:43:23;;;;;;;;;;;;;;;;;;5061300;28;47441;-77
2022/09/08 06:45:49;;;;;;;;;;;;;;;;;;5065710;28;47263;-78
2022/09/08 06:48:15;;;;;;;;;;;;;;;;;;5065273;28;47853;-77
2022/09/08 06:50:42;;;;;;;;;;;;;;;;;;5066187;28;46166;-77
2022/09/08 06:53:08;;;;;;;;;;;;;;;;;;5065032;28;44047;-77
2022/09/08 06:55:35;;;;;;;;;;;;;;;;;;5063885;28;48404;-77
2022/09/08 06:58:03;;;;;;;;;;;;;;;;;;5066905;28;47193;-78
2022/09/08 07:00:29;;;;;;;;;;;;;;;;;;5054066;28;44632;-77
2022/09/08 07:02:56;;;;;;;;;;;;;;;;;;5071532;28;46557;-77
2022/09/08 07:05:22;;;;;;;;;;;;;;;;;;5066048;28;47303;-77
2022/09/08 07:07:48;;;;;;;;;;;;;;;;;;5068288;28;43017;-76
2022/09/08 07:10:14;;;;;;;;;;;;;;;;;;5069577;28;48061;-80
2022/09/08 07:12:40;;;;;;;;;;;;;;;;;;5068140;28;45098;-77
2022/09/08 07:15:07;;;;;;;;;;;;;;;;;;5064835;28;46716;-77
2022/09/08 07:17:33;;;;;;;;;;;;;;;;;;5051789;28;47849;-77
2022/09/08 07:19:59;;;;;;;;;;;;;;;;;;5050922;28;44055;-78
2022/09/08 07:22:25;;;;;;;;;;;;;;;;;;5074883;28;47803;-76
2022/09/08 07:24:52;;;;;;;;;;;;;;;;;;5066871;28;45742;-77
2022/09/08 07:27:18;;;;;;;;;;;;;;;;;;5065689;28;45008;-79
2022/09/08 07:29:44;;;;;;;;;;;;;;;;;;5065800;28;46748;-78
2022/09/08 07:32:10;;;;;;;;;;;;;;;;;;5067411;28;43972;-78
2022/09/08 07:34:36;;;;;;;;;;;;;;;;;;5065778;28;46370;-78
2022/09/08 07:37:02;;;;;;;;;;;;;;;;;;5065267;28;48370;-77
2022/09/08 07:39:29;;;;;;;;;;;;;;;;;;5067088;28;44781;-77
2022/09/08 07:41:58;;;;;;;;;;;;;;;;;;5065421;28;46309;-76
2022/09/08 07:44:25;;;;;;;;;;;;;;;;;;5060733;28;46890;-77
2022/09/08 07:46:51;;;;;;;;;;;;;;;;;;5067797;28;43920;-77
2022/09/08 07:49:20;;;;;;;;;;;;;;;;;;5064178;28;46646;-77
2022/09/08 07:51:46;;;;;;;;;;;;;;;;;;5068544;28;48340;-77
2022/09/08 07:54:12;;;;;;;;;;;;;;;;;;5065999;28;46711;-76
2022/09/08 07:56:38;;;;;;;;;;;;;;;;;;5067076;28;48700;-77
2022/09/08 07:59:25;;;;;;;;;;;;;;;;;;5067983;28;19929;-77
2022/09/08 08:01:51;;;;;;;;;;;;;;;;;;5067204;28;46500;-77
2022/09/08 08:04:18;;;;;;;;;;;;;;;;;;5051186;28;47844;-77
2022/09/08 08:06:44;;;;;;;;;;;;;;;;;;5054586;28;43089;-77
2022/09/08 08:09:10;;;;;;;;;;;;;;;;;;5059701;28;45389;-78
2022/09/08 08:11:36;;;;;;;;;;;;;;;;;;5061455;28;48389;-77
2022/09/08 08:14:02;;;;;;;;;;;;;;;;;;5067296;28;45073;-77
2022/09/08 08:16:30;;;;;;;;;;;;;;;;;;5066458;28;48342;-77
2022/09/08 08:18:56;;;;;;;;;;;;;;;;;;5053133;28;44142;-77
2022/09/08 08:21:23;;;;;;;;;;;;;;;;;;5064422;28;47828;-78
2022/09/08 08:23:49;;;;;;;;;;;;;;;;;;5057445;28;47303;-79
2022/09/08 08:26:16;;;;;;;;;;;;;;;;;;5062356;28;45097;-79
2022/09/08 08:28:42;;;;;;;;;;;;;;;;;;5066653;28;46724;-80
2022/09/08 08:31:08;;;;;;;;;;;;;;;;;;5068241;28;47400;-80
2022/09/08 08:33:34;;;;;;;;;;;;;;;;;;5064200;28;43993;-80
2022/09/08 08:36:00;;;;;;;;;;;;;;;;;;5069335;28;48196;-79
2022/09/08 08:38:30;;;;;;;;;;;;;;;;;;5069842;28;44915;-79
2022/09/08 08:40:57;;;;;;;;;;;;;;;;;;5065032;28;46762;-79
2022/09/08 08:43:23;;;;;;;;;;;;;;;;;;5049197;28;46184;-79
2022/09/08 08:45:50;;;;;;;;;;;;;;;;;;5063805;28;45118;-79
2022/09/08 08:48:16;;;;;;;;;;;;;;;;;;5068184;28;46166;-79
2022/09/08 08:50:42;;;;;;;;;;;;;;;;;;5060812;28;46384;-78
2022/09/08 08:53:08;;;;;;;;;;;;;;;;;;5067434;28;45108;-78
2022/09/08 08:55:37;;;;;;;;;;;;;;;;;;5067962;28;47397;-78
2022/09/08 08:58:03;;;;;;;;;;;;;;;;;;5064008;28;41277;-78
2022/09/08 09:00:35;;;;;;;;;;;;;;;;;;5066736;28;46593;-78
2022/09/08 09:03:01;;;;;;;;;;;;;;;;;;5064342;28;46991;-78
2022/09/08 09:05:27;;;;;;;;;;;;;;;;;;5057861;28;46066;-78
2022/09/08 09:07:54;;;;;;;;;;;;;;;;;;5063417;28;46779;-78
2022/09/08 09:10:20;;;;;;;;;;;;;;;;;;5066128;28;48322;-78
2022/09/08 09:12:49;;;;;;;;;;;;;;;;;;5065847;28;44057;-78
2022/09/08 09:15:15;;;;;;;;;;;;;;;;;;5056226;28;46628;-77
2022/09/08 09:18:01;;;;;;;;;;;;;;;;;;5056809;28;20713;-79
2022/09/08 09:20:27;;;;;;;;;;;;;;;;;;5053058;28;47701;-76
2022/09/08 09:22:54;;;;;;;;;;;;;;;;;;5063127;28;48341;-79
2022/09/08 09:25:20;;;;;;;;;;;;;;;;;;5063876;28;43285;-78
2022/09/08 09:27:46;;;;;;;;;;;;;;;;;;5065497;28;47664;-78
2022/09/08 09:30:13;;;;;;;;;;;;;;;;;;5065195;28;45562;-79
2022/09/08 09:32:39;;;;;;;;;;;;;;;;;;5064711;28;45140;-79
2022/09/08 09:35:06;;;;;;;;;;;;;;;;;;5063259;28;46355;-78
2022/09/08 09:37:33;;;;;;;;;;;;;;;;;;5054801;28;47255;-78
2022/09/08 09:39:59;;;;;;;;;;;;;;;;;;5069416;28;44048;-79
2022/09/08 09:42:27;;;;;;;;;;;;;;;;;;5067268;28;48417;-79
2022/09/08 09:44:53;;;;;;;;;;;;;;;;;;5068576;28;43062;-79
2022/09/08 09:47:19;;;;;;;;;;;;;;;;;;5065553;28;46337;-79
2022/09/08 09:49:46;;;;;;;;;;;;;;;;;;5053280;28;47001;-78
2022/09/08 09:52:12;;;;;;;;;;;;;;;;;;5054737;28;43636;-78
2022/09/08 09:54:41;;;;;;;;;;;;;;;;;;5066125;28;48050;-79
2022/09/08 09:57:07;;;;;;;;;;;;;;;;;;5068233;28;45869;-79
2022/09/08 09:59:54;;;;;;;;;;;;;;;;;;5058360;28;20388;-78
2022/09/08 10:02:20;;;;;;;;;;;;;;;;;;5052436;28;44802;-79
2022/09/08 10:04:46;;;;;;;;;;;;;;;;;;5065263;28;44083;-79
2022/09/08 10:07:15;;;;;;;;;;;;;;;;;;5064385;28;48007;-78
2022/09/08 10:09:41;;;;;;;;;;;;;;;;;;5065570;28;45714;-79
2022/09/08 10:12:11;;;;;;;;;;;;;;;;;;5061648;28;42839;-79
2022/09/08 10:14:37;;;;;;;;;;;;;;;;;;5052916;28;45829;-78
2022/09/08 10:17:04;;;;;;;;;;;;;;;;;;5061513;28;45700;-76
2022/09/08 10:19:30;;;;;;;;;;;;;;;;;;5064088;28;45040;-77
2022/09/08 10:21:56;;;;;;;;;;;;;;;;;;5061251;28;47649;-77
2022/09/08 10:24:22;;;;;;;;;;;;;;;;;;5064022;28;34778;-77
2022/09/08 10:26:48;;;;;;;;;;;;;;;;;;5062450;28;45170;-78
2022/09/08 10:29:15;;;;;;;;;;;;;;;;;;5059548;28;49237;-78
2022/09/08 10:31:41;;;;;;;;;;;;;;;;;;5062232;28;45125;-78
2022/09/08 10:34:07;;;;;;;;;;;;;;;;;;5063306;28;46222;-79
2022/09/08 10:36:33;;;;;;;;;;;;;;;;;;5065020;28;48299;-79
2022/09/08 10:39:00;;;;;;;;;;;;;;;;;;5058622;28;45121;-78
2022/09/08 10:41:26;;;;;;;;;;;;;;;;;;5063099;28;46762;-77
2022/09/08 10:43:53;;;;;;;;;;;;;;;;;;5066430;28;47923;-78
2022/09/08 10:46:19;;;;;;;;;;;;;;;;;;5065751;28;47770;-77
2022/09/08 10:48:45;;;;;;;;;;;;;;;;;;5061802;28;45359;-77
2022/09/08 10:51:12;;;;;;;;;;;;;;;;;;5066536;28;45124;-78
2022/09/08 10:53:38;;;;;;;;;;;;;;;;;;5063238;28;46736;-79
2022/09/08 10:56:04;;;;;;;;;;;;;;;;;;5063996;28;48498;-78
2022/09/08 10:58:30;;;;;;;;;;;;;;;;;;5063604;28;42996;-77
2022/09/08 11:00:57;;;;;;;;;;;;;;;;;;5061899;28;47686;-78
2022/09/08 11:03:23;;;;;;;;;;;;;;;;;;5060104;28;48354;-78
2022/09/08 11:05:49;;;;;;;;;;;;;;;;;;5072234;28;43368;-78
2022/09/08 11:08:15;;;;;;;;;;;;;;;;;;5067166;28;47182;-81
2022/09/08 11:10:41;;;;;;;;;;;;;;;;;;5065373;28;44039;-80
2022/09/08 11:13:08;;;;;;;;;;;;;;;;;;5065016;28;47702;-80
2022/09/08 11:15:34;;;;;;;;;;;;;;;;;;5062435;28;47288;-80
2022/09/08 11:18:02;;;;;;;;;;;;;;;;;;5063771;28;42514;-81
2022/09/08 11:20:28;;;;;;;;;;;;;;;;;;5063156;28;47796;-80
2022/09/08 11:22:54;;;;;;;;;;;;;;;;;;5062389;28;46013;-80
2022/09/08 11:25:21;;;;;;;;;;;;;;;;;;5064575;28;44061;-80
2022/09/08 11:27:47;;;;;;;;;;;;;;;;;;5066137;28;47028;-80
2022/09/08 11:30:13;;;;;;;;;;;;;;;;;;5061404;28;45199;-79
2022/09/08 11:32:39;;;;;;;;;;;;;;;;;;5064680;28;46589;-79
2022/09/08 11:35:07;;;;;;;;;;;;;;;;;;5063830;28;48751;-80
2022/09/08 11:37:33;;;;;;;;;;;;;;;;;;5064404;28;43312;-79
2022/09/08 11:40:00;;;;;;;;;;;;;;;;;;5070139;28;47936;-79
2022/09/08 11:42:26;;;;;;;;;;;;;;;;;;5056448;28;47639;-78
2022/09/08 11:44:52;;;;;;;;;;;;;;;;;;5058316;28;42423;-78
2022/09/08 11:47:18;;;;;;;;;;;;;;;;;;5063512;28;47558;-78
2022/09/08 11:49:45;;;;;;;;;;;;;;;;;;5070566;28;48902;-79
2022/09/08 11:52:31;;;;;;;;;;;;;;;;;;5065050;28;19936;-79
2022/09/08 11:55:04;;;;;;;;;;;;;;;;;;5067753;28;48275;-79
2022/09/08 11:57:30;;;;;;;;;;;;;;;;;;5068123;28;44908;-79
2022/09/08 11:59:56;;;;;;;;;;;;;;;;;;5071092;28;44939;-79
2022/09/08 12:02:23;;;;;;;;;;;;;;;;;;5069570;28;48335;-79
2022/09/08 12:04:49;;;;;;;;;;;;;;;;;;5069402;28;45442;-79
2022/09/08 12:07:15;;;;;;;;;;;;;;;;;;5070759;28;46430;-79
2022/09/08 12:09:41;;;;;;;;;;;;;;;;;;5068834;28;47308;-79
2022/09/08 12:12:08;;;;;;;;;;;;;;;;;;5067971;28;43714;-78
2022/09/08 12:14:34;;;;;;;;;;;;;;;;;;5069240;28;48469;-79
2022/09/08 12:17:01;;;;;;;;;;;;;;;;;;5066767;28;42870;-79
2022/09/08 12:19:27;;;;;;;;;;;;;;;;;;5070210;28;45240;-79
2022/09/08 12:21:54;;;;;;;;;;;;;;;;;;5067385;28;44718;-79
2022/09/08 12:24:20;;;;;;;;;;;;;;;;;;5057138;28;42372;-79
2022/09/08 12:26:47;;;;;;;;;;;;;;;;;;5068598;28;45133;-79
2022/09/08 12:29:13;;;;;;;;;;;;;;;;;;5070542;28;47130;-79
2022/09/08 12:31:40;;;;;;;;;;;;;;;;;;5074369;28;44229;-79
2022/09/08 12:34:06;;;;;;;;;;;;;;;;;;5063845;28;48184;-79
2022/09/08 12:36:32;;;;;;;;;;;;;;;;;;5073628;28;43825;-79
2022/09/08 12:39:05;;;;;;;;;;;;;;;;;;5069116;28;46535;-79
2022/09/08 12:41:31;;;;;;;;;;;;;;;;;;5058009;28;45962;-79
2022/09/08 12:43:57;;;;;;;;;;;;;;;;;;5076593;28;44178;-79
2022/09/08 12:46:37;;;;;;;;;;;;;;;;;;5074188;28;46731;-79
2022/09/08 12:49:03;;;;;;;;;;;;;;;;;;5069380;28;45589;-79
2022/09/08 12:51:30;;;;;;;;;;;;;;;;;;5071814;28;42221;-78
2022/09/08 12:53:56;;;;;;;;;;;;;;;;;;5069921;28;47750;-77
2022/09/08 12:56:22;;;;;;;;;;;;;;;;;;5060406;28;44231;-80
2022/09/08 12:58:48;;;;;;;;;;;;;;;;;;5069029;28;46715;-80
2022/09/08 13:01:15;;;;;;;;;;;;;;;;;;5063880;28;48417;-80
2022/09/08 13:03:43;;;;;;;;;;;;;;;;;;5069756;28;44358;-80
2022/09/08 13:06:11;;;;;;;;;;;;;;;;;;5068315;28;44782;-79
2022/09/08 13:08:37;;;;;;;;;;;;;;;;;;5070007;28;48297;-79
2022/09/08 13:11:03;;;;;;;;;;;;;;;;;;5073165;28;45048;-79
2022/09/08 13:13:30;;;;;;;;;;;;;;;;;;5065982;28;44840;-79
2022/09/08 13:15:56;;;;;;;;;;;;;;;;;;5066359;28;48255;-79
2022/09/08 13:18:23;;;;;;;;;;;;;;;;;;5068392;28;46664;-79
2022/09/08 13:20:49;;;;;;;;;;;;;;;;;;5068759;28;48750;-80
2022/09/08 13:23:15;;;;;;;;;;;;;;;;;;5068070;28;42820;-80
2022/09/08 13:25:41;;;;;;;;;;;;;;;;;;5067336;28;47758;-80
2022/09/08 13:28:07;;;;;;;;;;;;;;;;;;5049695;28;46601;-80
2022/09/08 13:30:34;;;;;;;;;;;;;;;;;;5061599;28;44988;-81
2022/09/08 13:33:00;;;;;;;;;;;;;;;;;;5067210;28;47451;-81
2022/09/08 13:35:26;;;;;;;;;;;;;;;;;;5069399;28;47287;-81
2022/09/08 13:37:52;;;;;;;;;;;;;;;;;;5073381;28;44963;-81
2022/09/08 13:40:19;;;;;;;;;;;;;;;;;;5074158;28;48262;-81
2022/09/08 13:42:45;;;;;;;;;;;;;;;;;;5069412;28;45058;-81
2022/09/08 13:45:12;;;;;;;;;;;;;;;;;;5068716;28;47280;-81
2022/09/08 13:47:38;;;;;;;;;;;;;;;;;;5069057;28;47287;-81
2022/09/08 13:50:05;;;;;;;;;;;;;;;;;;5068436;28;44053;-81
2022/09/08 13:52:31;;;;;;;;;;;;;;;;;;5069940;28;46565;-81
2022/09/08 13:54:57;;;;;;;;;;;;;;;;;;5067061;28;46165;-81
2022/09/08 13:57:24;;;;;;;;;;;;;;;;;;5068112;28;45031;-81
2022/09/08 13:59:50;;;;;;;;;;;;;;;;;;5073055;28;46982;-80
2022/09/08 14:02:16;;;;;;;;;;;;;;;;;;5061966;28;44782;-81
2022/09/08 14:04:42;;;;;;;;;;;;;;;;;;5059448;28;46156;-81
2022/09/08 14:07:08;;;;;;;;;;;;;;;;;;5070631;28;48363;-81
2022/09/08 14:09:36;;;;;;;;;;;;;;;;;;5070703;28;42319;-81
2022/09/08 14:12:04;;;;;;;;;;;;;;;;;;5066787;28;47779;-80
2022/09/08 14:14:30;;;;;;;;;;;;;;;;;;5065713;28;48668;-81
2022/09/08 14:16:57;;;;;;;;;;;;;;;;;;5065318;28;44060;-80
2022/09/08 14:19:25;;;;;;;;;;;;;;;;;;5069840;28;34523;-81
2022/09/08 14:21:53;;;;;;;;;;;;;;;;;;5061026;28;47307;-81
2022/09/08 14:24:22;;;;;;;;;;;;;;;;;;5070527;28;45055;-81
2022/09/08 14:26:48;;;;;;;;;;;;;;;;;;5072026;28;48261;-81
2022/09/08 14:29:15;;;;;;;;;;;;;;;;;;5068230;28;45133;-81
2022/09/08 14:31:41;;;;;;;;;;;;;;;;;;5071502;28;47736;-81
2022/09/08 14:34:07;;;;;;;;;;;;;;;;;;5075820;28;48407;-81
2022/09/08 14:36:34;;;;;;;;;;;;;;;;;;5070974;28;42258;-81
2022/09/08 14:39:00;;;;;;;;;;;;;;;;;;5069085;28;47717;-81
2022/09/08 14:41:26;;;;;;;;;;;;;;;;;;5070515;28;48320;-80
2022/09/08 14:43:53;;;;;;;;;;;;;;;;;;5068916;28;47671;-80
2022/09/08 14:46:19;;;;;;;;;;;;;;;;;;5086807;28;47161;-80
2022/09/08 14:48:45;;;;;;;;;;;;;;;;;;5082910;28;43979;-80
2022/09/08 14:51:11;;;;;;;;;;;;;;;;;;5076210;28;44675;-80
2022/09/08 14:53:37;;;;;;;;;;;;;;;;;;5078114;28;47613;-80
2022/09/08 14:56:04;;;;;;;;;;;;;;;;;;5060720;28;45033;-80
2022/09/08 14:58:30;;;;;;;;;;;;;;;;;;5071224;28;48364;-81
2022/09/08 15:00:56;;;;;;;;;;;;;;;;;;5068627;28;48098;-80
2022/09/08 15:03:23;;;;;;;;;;;;;;;;;;5070211;28;43654;-80
2022/09/08 15:05:50;;;;;;;;;;;;;;;;;;5068456;28;47316;-80
2022/09/08 15:08:16;;;;;;;;;;;;;;;;;;5070388;28;43578;-80
2022/09/08 15:10:42;;;;;;;;;;;;;;;;;;5067198;28;46738;-80
2022/09/08 15:13:09;;;;;;;;;;;;;;;;;;5065413;28;46919;-79
2022/09/08 15:15:36;;;;;;;;;;;;;;;;;;5053431;28;44019;-79
2022/09/08 15:18:02;;;;;;;;;;;;;;;;;;5070067;28;47755;-78
2022/09/08 15:20:28;;;;;;;;;;;;;;;;;;5070200;28;47296;-78
2022/09/08 15:22:55;;;;;;;;;;;;;;;;;;5072076;28;44345;-78
2022/09/08 15:25:21;;;;;;;;;;;;;;;;;;5071641;28;46545;-79
2022/09/08 15:27:47;;;;;;;;;;;;;;;;;;5071256;28;42830;-79
2022/09/08 15:30:14;;;;;;;;;;;;;;;;;;5068381;28;47724;-79
2022/09/08 15:32:41;;;;;;;;;;;;;;;;;;5069658;28;47195;-79
2022/09/08 15:35:08;;;;;;;;;;;;;;;;;;5069494;28;45159;-78
2022/09/08 15:37:35;;;;;;;;;;;;;;;;;;5066915;28;46548;-79
2022/09/08 15:40:03;;;;;;;;;;;;;;;;;;5070930;28;47110;-79
2022/09/08 15:42:30;;;;;;;;;;;;;;;;;;5066190;28;43673;-79
2022/09/08 15:44:56;;;;;;;;;;;;;;;;;;5065311;28;47820;-79
2022/09/08 15:47:22;;;;;;;;;;;;;;;;;;5064733;28;47323;-79
2022/09/08 15:49:49;;;;;;;;;;;;;;;;;;5067948;28;47861;-79
2022/09/08 15:52:15;;;;;;;;;;;;;;;;;;5063740;28;46125;-79
2022/09/08 15:54:41;;;;;;;;;;;;;;;;;;5071208;28;44930;-80
2022/09/08 15:57:07;;;;;;;;;;;;;;;;;;5070034;28;47754;-79
2022/09/08 15:59:33;;;;;;;;;;;;;;;;;;5065564;28;47289;-79
2022/09/08 16:01:59;;;;;;;;;;;;;;;;;;5067830;28;46310;-79
2022/09/08 16:04:26;;;;;;;;;;;;;;;;;;5068591;28;46407;-78
2022/09/08 16:06:52;;;;;;;;;;;;;;;;;;5063675;28;48597;-78
2022/09/08 16:09:18;;;;;;;;;;;;;;;;;;5068413;28;43907;-79
2022/09/08 16:11:44;;;;;;;;;;;;;;;;;;5070589;28;48331;-78
2022/09/08 16:14:10;;;;;;;;;;;;;;;;;;5066066;28;45141;-78
2022/09/08 16:16:37;;;;;;;;;;;;;;;;;;5056879;28;46723;-78
2022/09/08 16:19:03;;;;;;;;;;;;;;;;;;5066579;28;47019;-78
2022/09/08 16:21:29;;;;;;;;;;;;;;;;;;5050086;28;45159;-78
2022/09/08 16:23:59;;;;;;;;;;;;;;;;;;5065670;28;47732;-78
2022/09/08 16:26:25;;;;;;;;;;;;;;;;;;5066464;28;47297;-78
2022/09/08 16:28:52;;;;;;;;;;;;;;;;;;5066691;28;44366;-78
2022/09/08 16:31:18;;;;;;;;;;;;;;;;;;5065963;28;46744;-78
2022/09/08 16:33:46;;;;;;;;;;;;;;;;;;5073681;28;45349;-78
2022/09/08 16:36:12;;;;;;;;;;;;;;;;;;5065553;28;46621;-78
2022/09/08 16:38:39;;;;;;;;;;;;;;;;;;5062852;28;47282;-78
2022/09/08 16:41:05;;;;;;;;;;;;;;;;;;5056717;28;43973;-76
2022/09/08 16:43:34;;;;;;;;;;;;;;;;;;5061516;28;46483;-76
2022/09/08 16:46:02;;;;;;;;;;;;;;;;;;5066948;28;44601;-77